메인 페이지
METAR-TAF:

METAR-TAF

공항 :

카이로 국제공항

카이로, 이집트

위도: 30-08N, 경도: 031-24E, 고도: 64m

현재 날씨관측

예보는 13분 전, 09:30시(UTC)에 발표되었습니다.
북북동9kt
온도 34°C
습도 22%
기압 1012 hPa
시정 10km 이상
1500m 미만 상공 구름 및 적란운 없음

METAR: HECA 200930Z 03009KT CAVOK 34/09 Q1012 NOSIG

시각: 11:43 (09:43 UTC)

예보

예보는 4 시간 43분 전, 05:00시(UTC)에 발표되었습니다.
예보 대상 시간: 20일 06시부터 21일 12시까지 (UTC)
북동11kt
시정 10km 이상
1500m 미만 상공 구름 및 적란운 없음
확률 40%
20일 06시부터 20일 10시까지 (UTC)
북북동8kt
시정: 4000m
연무
일시적
20일 12시부터 20일 20시까지 (UTC)
북동15kt, 순간 최대 풍속 25kt
확률 30%
21일 00시부터 21일 08시까지 (UTC)
7kt
시정: 4000m
연무

TAF: HECA 200500Z 2006/2112 04011KT CAVOK PROB40 2006/2010 03008KT 4000 HZ NSC TEMPO 2012/2020 05015G25KT PROB30 2100/2108 01007KT 4000 HZ NSC

4,000개 이상의 공항 관측 자료 및 예보 (METAR 및 TAF 보고).

지도상에서 검색 가능한 기상관측소가 노란 점과 빨간 점으로 표시되어 있습니다.

기상관측소 명을 보려면 표시 위로 마우스를 이동하세요.

날씨 관측과 예보를 보려면 클릭하세요.

지도 변경 : 확대하려면 엑스 표시가 있는 녹색 버튼, 축소하려면 빼기 표시가 있는 녹색 버튼, 다음 페이지의 지도를 보려면 녹색 화살표를 클릭하세요.


METAR-TAF: